Time;durP1;ratioP1;P1;durP2;ratioP2;P2;SDS_P1;SDS_P2;PMS_P1;PMS_P2;Temp;Humidity;BMP_temperature;BMP_pressure;BME280_temperature;BME280_humidity;BME280_pressure;Samples;Min_cycle;Max_cycle;Signal;HPM_P1;HPM_P2
2023/06/15 00:00:08;;;;;;;0.00;0.00;;;19.90;99.90;;;;;;5031423;28;20022;-83
2023/06/15 00:02:34;;;;;;;0.15;0.15;;;19.80;99.90;;;;;;5032133;28;20021;-83
2023/06/15 00:05:00;;;;;;;0.25;0.25;;;19.80;99.90;;;;;;5031729;28;20541;-83
2023/06/15 00:07:26;;;;;;;0.10;0.10;;;19.90;99.90;;;;;;5031599;28;20025;-83
2023/06/15 00:09:52;;;;;;;0.20;0.20;;;19.90;99.90;;;;;;5031624;28;20083;-83
2023/06/15 00:12:17;;;;;;;0.00;0.00;;;19.90;99.90;;;;;;5034759;28;20028;-83
2023/06/15 00:14:43;;;;;;;0.47;0.30;;;19.80;99.90;;;;;;5035228;28;20025;-83
2023/06/15 00:17:11;;;;;;;0.03;0.03;;;19.70;99.90;;;;;;5035245;28;20102;-83
2023/06/15 00:19:37;;;;;;;0.20;0.20;;;19.70;99.90;;;;;;5035227;28;20057;-83
2023/06/15 00:22:04;;;;;;;0.25;0.25;;;19.50;99.90;;;;;;5035225;28;20093;-83
2023/06/15 00:24:30;;;;;;;0.10;0.10;;;19.30;99.90;;;;;;5035261;28;20500;-83
2023/06/15 00:26:55;;;;;;;0.10;0.10;;;19.30;99.90;;;;;;5035203;28;20021;-83
2023/06/15 00:29:21;;;;;;;0.20;0.20;;;19.30;99.90;;;;;;5035039;28;20033;-82
2023/06/15 00:31:46;;;;;;;0.10;0.10;;;19.30;99.90;;;;;;5034706;28;20079;-83
2023/06/15 00:34:12;;;;;;;0.10;0.10;;;19.50;99.90;;;;;;5034949;28;20057;-82
2023/06/15 00:36:38;;;;;;;0.00;0.00;;;19.40;99.90;;;;;;5034837;28;20408;-83
2023/06/15 00:39:04;;;;;;;0.20;0.20;;;19.40;99.90;;;;;;5035423;28;20097;-84
2023/06/15 00:41:30;;;;;;;0.20;0.20;;;19.20;99.90;;;;;;5034502;28;20139;-83
2023/06/15 00:43:55;;;;;;;0.20;0.20;;;19.10;99.90;;;;;;5034309;28;20022;-83
2023/06/15 00:46:22;;;;;;;0.38;0.38;;;19.20;99.90;;;;;;5035106;28;20040;-83
2023/06/15 00:48:48;;;;;;;0.10;0.10;;;19.40;99.90;;;;;;5035531;28;20022;-83
2023/06/15 00:51:14;;;;;;;0.00;0.00;;;19.00;99.90;;;;;;5034729;28;20079;-83
2023/06/15 00:53:43;;;;;;;0.00;0.00;;;19.10;99.90;;;;;;5034640;28;20032;-83
2023/06/15 00:56:08;;;;;;;0.15;0.15;;;19.00;99.90;;;;;;5034469;28;20030;-83
2023/06/15 00:58:36;;;;;;;0.35;0.35;;;19.00;99.90;;;;;;5034112;28;20025;-82
2023/06/15 01:01:03;;;;;;;0.10;0.10;;;19.10;99.90;;;;;;5034557;28;20029;-83
2023/06/15 01:03:30;;;;;;;0.10;0.10;;;19.00;99.90;;;;;;5034980;28;20382;-83
2023/06/15 01:05:58;;;;;;;0.22;0.20;;;19.00;99.90;;;;;;5034268;28;20064;-82
2023/06/15 01:08:26;;;;;;;0.10;0.10;;;18.70;99.90;;;;;;5034431;28;20021;-83
2023/06/15 01:10:54;;;;;;;0.00;0.00;;;18.80;99.90;;;;;;5017221;28;20120;-83
2023/06/15 01:13:21;;;;;;;0.10;0.10;;;18.60;99.90;;;;;;5034230;28;20032;-83
2023/06/15 01:15:49;;;;;;;0.00;0.00;;;18.60;99.90;;;;;;5034161;28;20477;-82
2023/06/15 01:18:20;;;;;;;0.15;0.15;;;18.60;99.90;;;;;;5034170;28;20412;-83
2023/06/15 01:20:48;;;;;;;0.57;0.20;;;18.50;99.90;;;;;;5034117;28;20083;-83
2023/06/15 01:23:32;;;;;;;0.10;0.10;;;18.40;99.90;;;;;;5032893;28;20021;-82
2023/06/15 01:26:06;;;;;;;0.15;0.15;;;18.50;99.90;;;;;;5033925;28;20029;-82
2023/06/15 01:28:34;;;;;;;0.08;0.08;;;18.40;99.90;;;;;;5033938;28;20053;-83
2023/06/15 01:31:00;;;;;;;0.00;0.00;;;18.20;99.90;;;;;;5033682;28;20474;-83
2023/06/15 01:33:26;;;;;;;0.10;0.10;;;18.40;99.90;;;;;;5034177;28;20636;-83
2023/06/15 01:35:52;;;;;;;0.10;0.10;;;18.30;99.90;;;;;;5033734;28;20025;-83
2023/06/15 01:38:22;;;;;;;0.10;0.10;;;18.20;99.90;;;;;;5033709;28;20036;-82
2023/06/15 01:40:50;;;;;;;0.15;0.15;;;18.40;99.90;;;;;;5033213;28;20056;-83
2023/06/15 01:43:25;;;;;;;0.10;0.10;;;18.40;99.90;;;;;;5033511;28;20071;-83
2023/06/15 01:45:52;;;;;;;0.10;0.10;;;18.40;99.90;;;;;;5034042;28;20052;-83
2023/06/15 01:48:18;;;;;;;0.20;0.20;;;18.40;99.90;;;;;;5033647;28;20025;-83
2023/06/15 01:50:44;;;;;;;0.10;0.10;;;18.40;99.90;;;;;;5033183;28;20052;-83
2023/06/15 01:53:10;;;;;;;0.25;0.25;;;18.50;99.90;;;;;;5033895;28;20466;-83
2023/06/15 01:55:35;;;;;;;0.10;0.10;;;18.30;99.90;;;;;;5033082;28;20436;-82
2023/06/15 01:58:01;;;;;;;0.25;0.25;;;18.10;99.90;;;;;;5033284;28;20497;-83
2023/06/15 02:00:28;;;;;;;0.10;0.10;;;18.10;99.90;;;;;;5033797;28;20030;-83
2023/06/15 02:02:54;;;;;;;0.55;0.55;;;18.00;99.90;;;;;;5033807;28;20022;-83
2023/06/15 02:05:20;;;;;;;0.80;0.77;;;18.10;99.90;;;;;;5033132;28;20022;-83
2023/06/15 02:07:46;;;;;;;0.20;0.20;;;18.10;99.90;;;;;;5033330;28;20029;-83
2023/06/15 02:10:12;;;;;;;0.28;0.28;;;18.10;99.90;;;;;;5032904;28;20505;-83
2023/06/15 02:12:37;;;;;;;0.20;0.20;;;17.80;99.90;;;;;;5032992;28;20080;-83
2023/06/15 02:15:04;;;;;;;0.30;0.30;;;17.70;99.90;;;;;;5033490;28;20108;-83
2023/06/15 02:17:38;;;;;;;0.40;0.40;;;17.70;99.90;;;;;;5032862;28;20543;-83
2023/06/15 02:20:05;;;;;;;0.73;0.30;;;17.80;99.90;;;;;;5033022;28;20053;-83
2023/06/15 02:22:31;;;;;;;0.63;0.35;;;17.70;99.90;;;;;;5032929;28;20698;-83
2023/06/15 02:24:56;;;;;;;0.47;0.47;;;17.60;99.90;;;;;;5032604;28;20071;-83
2023/06/15 02:27:22;;;;;;;0.00;0.00;;;17.80;99.90;;;;;;5033111;28;20546;-83
2023/06/15 02:29:47;;;;;;;0.20;0.20;;;17.50;99.90;;;;;;5032609;28;20244;-83
2023/06/15 02:32:36;;;;;;;0.10;0.10;;;17.70;99.90;;;;;;5032660;28;20026;-83
2023/06/15 02:35:07;;;;;;;0.10;0.10;;;17.60;99.90;;;;;;5032469;28;20029;-83
2023/06/15 02:37:33;;;;;;;0.10;0.10;;;17.80;99.90;;;;;;5032685;28;20091;-82
2023/06/15 02:39:58;;;;;;;0.40;0.40;;;17.70;99.90;;;;;;5031916;28;20014;-82
2023/06/15 02:42:24;;;;;;;0.10;0.10;;;17.50;99.90;;;;;;5032759;28;20057;-82
2023/06/15 02:44:50;;;;;;;1.00;0.32;;;17.70;99.90;;;;;;5032526;28;20453;-82
2023/06/15 02:47:16;;;;;;;1.95;0.55;;;17.60;99.90;;;;;;5032487;28;20117;-83
2023/06/15 02:49:41;;;;;;;0.52;0.40;;;17.70;99.90;;;;;;5033261;28;20044;-82
2023/06/15 02:52:07;;;;;;;0.25;0.25;;;17.60;99.90;;;;;;5032638;28;20417;-84
2023/06/15 02:54:34;;;;;;;0.17;0.17;;;17.30;99.90;;;;;;5031978;28;20142;-83
2023/06/15 02:57:01;;;;;;;1.00;0.75;;;17.50;99.90;;;;;;5033259;28;20082;-83
2023/06/15 02:59:26;;;;;;;0.30;0.30;;;17.50;99.90;;;;;;5032606;28;20545;-83
2023/06/15 03:01:52;;;;;;;0.28;0.28;;;17.60;99.90;;;;;;5014577;28;20175;-83
2023/06/15 03:04:21;;;;;;;0.30;0.30;;;17.40;99.90;;;;;;5014637;28;20404;-83
2023/06/15 03:06:50;;;;;;;0.47;0.47;;;17.40;99.90;;;;;;5031911;28;20021;-83
2023/06/15 03:09:17;;;;;;;0.20;0.20;;;17.50;99.90;;;;;;5032432;28;20156;-82
2023/06/15 03:11:43;;;;;;;0.28;0.22;;;17.60;99.90;;;;;;5032077;28;20057;-84
2023/06/15 03:14:10;;;;;;;0.13;0.13;;;17.30;99.90;;;;;;5032595;28;20064;-83
2023/06/15 03:16:39;;;;;;;0.20;0.20;;;17.30;99.90;;;;;;5032211;28;20037;-82
2023/06/15 03:19:07;;;;;;;0.30;0.30;;;17.30;99.90;;;;;;5032259;28;20024;-83
2023/06/15 03:21:33;;;;;;;0.40;0.40;;;17.20;99.90;;;;;;5032104;28;20119;-83
2023/06/15 03:23:59;;;;;;;0.20;0.20;;;17.10;99.90;;;;;;5031934;28;20064;-83
2023/06/15 03:26:27;;;;;;;0.52;0.50;;;17.00;99.90;;;;;;5032029;28;20034;-83
2023/06/15 03:28:53;;;;;;;0.68;0.35;;;17.00;99.90;;;;;;5032040;28;20021;-82
2023/06/15 03:31:19;;;;;;;0.10;0.10;;;16.90;99.90;;;;;;5031741;28;20481;-83
2023/06/15 03:33:46;;;;;;;0.30;0.30;;;17.00;99.90;;;;;;5032134;28;20040;-83
2023/06/15 03:36:14;;;;;;;0.10;0.10;;;17.00;99.90;;;;;;5032699;28;20029;-83
2023/06/15 03:38:41;;;;;;;0.35;0.35;;;16.90;99.90;;;;;;5031899;28;20034;-83
2023/06/15 03:41:07;;;;;;;0.15;0.15;;;17.00;99.90;;;;;;5031754;28;20394;-83
2023/06/15 03:43:35;;;;;;;0.57;0.57;;;17.30;99.90;;;;;;5032011;28;20030;-83
2023/06/15 03:46:00;;;;;;;0.10;0.10;;;17.20;99.90;;;;;;5032799;28;20032;-83
2023/06/15 03:48:26;;;;;;;0.10;0.10;;;17.20;99.90;;;;;;5035947;28;20017;-83
2023/06/15 03:50:52;;;;;;;0.00;0.00;;;17.10;99.90;;;;;;5035822;28;20404;-83
2023/06/15 03:53:17;;;;;;;0.10;0.10;;;17.10;99.90;;;;;;5035588;28;20112;-83
2023/06/15 03:55:43;;;;;;;0.10;0.10;;;17.00;99.90;;;;;;5035803;28;20377;-83
2023/06/15 03:58:08;;;;;;;0.10;0.10;;;17.00;99.90;;;;;;5035588;28;20083;-82
2023/06/15 04:00:34;;;;;;;0.20;0.20;;;17.10;99.90;;;;;;5036085;28;20469;-83
2023/06/15 04:02:59;;;;;;;0.00;0.00;;;16.90;99.90;;;;;;5035922;28;20018;-83
2023/06/15 04:05:25;;;;;;;0.10;0.10;;;16.80;99.90;;;;;;5035044;28;20111;-82
2023/06/15 04:07:51;;;;;;;0.10;0.10;;;16.80;99.90;;;;;;5035749;28;20029;-83
2023/06/15 04:10:16;;;;;;;0.10;0.10;;;16.80;99.90;;;;;;5035352;28;20030;-83
2023/06/15 04:12:43;;;;;;;0.40;0.40;;;16.80;99.90;;;;;;5035627;28;20339;-83
2023/06/15 04:15:09;;;;;;;1.15;0.70;;;16.90;99.90;;;;;;5035271;28;20024;-83
2023/06/15 04:17:35;;;;;;;0.10;0.10;;;16.90;99.90;;;;;;5035185;28;20025;-83
2023/06/15 04:20:04;;;;;;;0.22;0.22;;;16.90;99.90;;;;;;5035228;28;20515;-83
2023/06/15 04:22:30;;;;;;;0.30;0.30;;;16.70;99.90;;;;;;5035137;28;20084;-82
2023/06/15 04:24:56;;;;;;;0.00;0.00;;;16.90;99.90;;;;;;5035135;28;20029;-83
2023/06/15 04:27:23;;;;;;;0.17;0.17;;;17.10;99.90;;;;;;5035280;28;20103;-83
2023/06/15 04:29:49;;;;;;;0.00;0.00;;;17.20;99.90;;;;;;5034863;28;20394;-82
2023/06/15 04:32:17;;;;;;;0.10;0.10;;;17.10;99.90;;;;;;5035298;28;20072;-83
2023/06/15 04:34:45;;;;;;;0.00;0.00;;;17.40;99.90;;;;;;5034716;28;20060;-83
2023/06/15 04:37:13;;;;;;;0.20;0.20;;;17.40;99.90;;;;;;5034896;28;20327;-82
2023/06/15 04:39:39;;;;;;;1.27;0.77;;;17.40;99.90;;;;;;5034964;28;20022;-82
2023/06/15 04:42:08;;;;;;;0.10;0.10;;;17.20;99.90;;;;;;5033281;28;20048;-82
2023/06/15 04:44:34;;;;;;;0.17;0.17;;;17.20;99.90;;;;;;5035254;28;20029;-82
2023/06/15 04:47:00;;;;;;;0.30;0.30;;;17.20;99.90;;;;;;5033550;28;20083;-82
2023/06/15 04:49:26;;;;;;;0.10;0.10;;;17.20;99.90;;;;;;5033157;28;20022;-82
2023/06/15 04:51:51;;;;;;;0.10;0.10;;;17.10;99.90;;;;;;5033568;28;20044;-82
2023/06/15 04:54:17;;;;;;;1.35;0.63;;;17.10;99.90;;;;;;5033559;28;20045;-81
2023/06/15 04:56:43;;;;;;;0.22;0.22;;;17.10;99.90;;;;;;5033479;28;20044;-82
2023/06/15 04:59:08;;;;;;;0.20;0.20;;;17.20;99.90;;;;;;5033333;28;20474;-82
2023/06/15 05:01:34;;;;;;;0.25;0.25;;;17.20;99.90;;;;;;5033383;28;20120;-82
2023/06/15 05:04:00;;;;;;;0.10;0.10;;;17.30;99.90;;;;;;5032994;28;20037;-82
2023/06/15 05:06:26;;;;;;;0.00;0.00;;;17.20;99.90;;;;;;5033137;28;20454;-82
2023/06/15 05:08:51;;;;;;;0.70;0.35;;;17.20;99.90;;;;;;5033138;28;20109;-81
2023/06/15 05:11:17;;;;;;;0.10;0.10;;;17.20;99.90;;;;;;5033629;28;20038;-82
2023/06/15 05:13:42;;;;;;;0.20;0.20;;;17.20;99.90;;;;;;5033096;28;20021;-82
2023/06/15 05:16:08;;;;;;;0.20;0.20;;;17.30;99.90;;;;;;5033089;28;20029;-82
2023/06/15 05:18:34;;;;;;;0.45;0.45;;;17.50;99.90;;;;;;5032738;28;20442;-82
2023/06/15 05:20:59;;;;;;;0.10;0.10;;;17.40;99.90;;;;;;5032949;28;20480;-81
2023/06/15 05:23:26;;;;;;;0.20;0.20;;;17.40;99.90;;;;;;5033121;28;20039;-82
2023/06/15 05:25:52;;;;;;;0.20;0.20;;;17.40;99.90;;;;;;5033311;28;20029;-82
2023/06/15 05:28:18;;;;;;;0.00;0.00;;;17.50;99.90;;;;;;5033020;28;20026;-81
2023/06/15 05:30:44;;;;;;;0.43;0.13;;;17.70;99.90;;;;;;5032469;28;20409;-82
2023/06/15 05:33:10;;;;;;;0.20;0.20;;;17.90;99.90;;;;;;5032522;28;20032;-82
2023/06/15 05:35:36;;;;;;;0.10;0.10;;;17.70;99.90;;;;;;5032735;28;20034;-82
2023/06/15 05:38:01;;;;;;;0.05;0.05;;;17.80;99.90;;;;;;5032764;28;20120;-82
2023/06/15 05:40:27;;;;;;;0.30;0.30;;;18.20;99.90;;;;;;4995180;28;1092322;-82
2023/06/15 05:42:54;;;;;;;0.30;0.30;;;18.00;99.90;;;;;;5033033;28;20026;-82
2023/06/15 05:45:20;;;;;;;0.00;0.00;;;18.00;99.90;;;;;;5033948;28;20026;-81
2023/06/15 05:47:45;;;;;;;0.15;0.15;;;18.10;99.90;;;;;;5033304;28;20030;-82
2023/06/15 05:50:11;;;;;;;0.17;0.17;;;18.20;99.90;;;;;;5026674;28;20026;-82
2023/06/15 05:52:37;;;;;;;0.10;0.10;;;18.20;99.90;;;;;;5013739;28;20030;-82
2023/06/15 05:55:03;;;;;;;0.03;0.03;;;18.40;99.90;;;;;;5013539;28;20466;-81
2023/06/15 05:57:28;;;;;;;0.35;0.35;;;18.50;99.90;;;;;;5014083;28;20105;-82
2023/06/15 05:59:54;;;;;;;0.20;0.20;;;18.60;99.90;;;;;;5013634;28;20144;-82
2023/06/15 06:02:19;;;;;;;0.20;0.20;;;18.80;99.90;;;;;;5018362;28;20014;-85
2023/06/15 06:04:45;;;;;;;0.10;0.10;;;18.90;99.90;;;;;;5025843;28;20672;-85
2023/06/15 06:07:11;;;;;;;0.10;0.10;;;19.10;99.90;;;;;;5029597;28;20026;-85
2023/06/15 06:09:37;;;;;;;0.00;0.00;;;19.20;99.90;;;;;;5029986;28;20074;-84
2023/06/15 06:12:03;;;;;;;0.10;0.10;;;19.30;99.90;;;;;;5029977;28;20448;-82
2023/06/15 06:14:29;;;;;;;14.35;1.05;;;19.50;99.90;;;;;;5032919;28;20022;-82
2023/06/15 06:16:55;;;;;;;0.10;0.10;;;19.50;99.90;;;;;;5033117;28;20401;-82
2023/06/15 06:19:22;;;;;;;0.52;0.38;;;19.50;99.90;;;;;;5033592;28;20040;-82
2023/06/15 06:21:48;;;;;;;0.20;0.20;;;19.50;99.90;;;;;;5033057;28;20028;-83
2023/06/15 06:24:14;;;;;;;0.30;0.30;;;19.40;99.90;;;;;;5032884;28;20021;-82
2023/06/15 06:26:39;;;;;;;0.20;0.20;;;19.40;99.90;;;;;;5032769;28;20184;-82
2023/06/15 06:29:05;;;;;;;0.10;0.10;;;19.40;99.90;;;;;;5033039;28;20018;-82
2023/06/15 06:31:30;;;;;;;0.88;0.88;;;19.50;99.90;;;;;;5032337;28;20555;-82
2023/06/15 06:33:56;;;;;;;0.38;0.38;;;19.70;99.90;;;;;;5033098;28;20014;-82
2023/06/15 06:36:22;;;;;;;0.00;0.00;;;19.90;99.90;;;;;;5032770;28;20072;-82
2023/06/15 06:38:47;;;;;;;0.10;0.10;;;20.00;99.90;;;;;;5032540;28;20033;-82
2023/06/15 06:41:14;;;;;;;0.47;0.43;;;19.90;99.90;;;;;;5032806;28;20053;-82
2023/06/15 06:43:40;;;;;;;0.30;0.30;;;19.90;99.90;;;;;;5032420;28;20033;-82
2023/06/15 06:46:05;;;;;;;0.45;0.45;;;19.80;99.90;;;;;;5032418;28;20105;-82
2023/06/15 06:48:31;;;;;;;0.40;0.40;;;20.00;99.90;;;;;;5032455;28;20071;-82
2023/06/15 06:50:57;;;;;;;0.10;0.10;;;20.00;99.90;;;;;;5032322;28;20058;-82
2023/06/15 06:53:23;;;;;;;0.10;0.10;;;20.00;99.90;;;;;;5033034;28;20465;-82
2023/06/15 06:55:48;;;;;;;0.17;0.17;;;20.10;99.90;;;;;;5032573;28;20052;-82
2023/06/15 06:58:14;;;;;;;0.30;0.30;;;20.10;99.90;;;;;;5032333;28;20393;-82
2023/06/15 07:00:40;;;;;;;0.88;0.30;;;20.10;99.90;;;;;;5031974;28;20501;-82
2023/06/15 07:03:05;;;;;;;0.25;0.25;;;20.10;99.90;;;;;;5032626;28;20034;-83
2023/06/15 07:05:31;;;;;;;0.10;0.10;;;20.10;99.90;;;;;;5032179;28;20080;-82
2023/06/15 07:07:57;;;;;;;0.95;0.40;;;20.00;99.90;;;;;;5032153;28;20068;-82
2023/06/15 07:10:22;;;;;;;0.13;0.13;;;19.90;99.90;;;;;;5032146;28;20414;-82
2023/06/15 07:12:48;;;;;;;0.30;0.30;;;20.00;99.90;;;;;;5032296;28;20486;-82
2023/06/15 07:15:14;;;;;;;0.20;0.20;;;20.00;99.90;;;;;;5032159;28;20497;-82
2023/06/15 07:17:40;;;;;;;0.20;0.20;;;20.10;99.90;;;;;;5032864;28;20036;-82
2023/06/15 07:20:06;;;;;;;0.25;0.25;;;20.20;99.90;;;;;;5031299;28;20052;-82
2023/06/15 07:22:32;;;;;;;0.00;0.00;;;20.20;99.90;;;;;;5032680;28;20029;-82
2023/06/15 07:24:58;;;;;;;0.57;0.17;;;20.20;99.90;;;;;;5032451;28;20037;-82
2023/06/15 07:27:23;;;;;;;0.82;0.40;;;20.20;99.90;;;;;;5014697;28;20442;-82
2023/06/15 07:29:49;;;;;;;0.22;0.22;;;20.20;99.90;;;;;;5031477;28;20018;-82
2023/06/15 07:32:14;;;;;;;1.23;0.60;;;20.20;99.90;;;;;;5031833;28;20102;-82
2023/06/15 07:34:40;;;;;;;0.38;0.32;;;20.30;99.90;;;;;;5032156;28;20026;-82
2023/06/15 07:37:06;;;;;;;0.63;0.55;;;20.40;99.90;;;;;;5031857;28;20037;-83
2023/06/15 07:39:32;;;;;;;0.65;0.43;;;20.50;99.90;;;;;;5032250;28;20030;-82
2023/06/15 07:41:58;;;;;;;0.57;0.30;;;20.60;99.90;;;;;;5031110;28;20421;-83
2023/06/15 07:44:24;;;;;;;0.22;0.22;;;20.50;99.90;;;;;;5031895;28;20237;-83
2023/06/15 07:46:49;;;;;;;0.22;0.22;;;20.50;99.90;;;;;;5031797;28;20025;-83
2023/06/15 07:49:15;;;;;;;1.05;0.52;;;20.60;99.90;;;;;;5031940;28;20125;-82
2023/06/15 07:51:41;;;;;;;0.40;0.40;;;20.60;99.90;;;;;;5031815;28;20041;-82
2023/06/15 07:54:06;;;;;;;0.90;0.60;;;20.70;99.90;;;;;;5031724;28;20540;-82
2023/06/15 07:56:32;;;;;;;0.40;0.40;;;20.60;99.90;;;;;;5032083;28;20033;-82
2023/06/15 07:58:57;;;;;;;0.57;0.57;;;20.80;99.90;;;;;;5013671;28;20029;-82
2023/06/15 08:01:23;;;;;;;0.55;0.50;;;20.80;99.90;;;;;;5031304;28;20033;-82
2023/06/15 08:03:49;;;;;;;0.30;0.30;;;20.70;99.90;;;;;;5031756;28;20032;-82
2023/06/15 08:06:14;;;;;;;0.65;0.65;;;20.90;99.90;;;;;;5031934;28;20025;-82
2023/06/15 08:08:40;;;;;;;0.25;0.25;;;20.90;99.90;;;;;;5031259;28;20018;-83
2023/06/15 08:11:06;;;;;;;0.47;0.45;;;21.00;99.90;;;;;;5032018;28;20172;-82
2023/06/15 08:13:32;;;;;;;0.40;0.40;;;21.10;99.90;;;;;;5031119;28;20405;-82
2023/06/15 08:15:58;;;;;;;0.22;0.20;;;21.20;99.90;;;;;;5031640;28;20032;-82
2023/06/15 08:18:25;;;;;;;0.10;0.10;;;21.30;99.90;;;;;;5031562;28;20018;-82
2023/06/15 08:20:51;;;;;;;2.60;0.60;;;21.30;99.90;;;;;;5031856;28;20088;-82
2023/06/15 08:23:17;;;;;;;0.03;0.03;;;21.30;99.90;;;;;;5032292;28;20013;-82
2023/06/15 08:25:43;;;;;;;0.25;0.25;;;21.50;99.90;;;;;;5031351;28;20061;-84
2023/06/15 08:28:09;;;;;;;0.30;0.30;;;21.60;99.90;;;;;;5031378;28;20048;-82
2023/06/15 08:30:35;;;;;;;0.40;0.40;;;21.60;99.90;;;;;;5031489;28;20116;-82
2023/06/15 08:33:00;;;;;;;0.28;0.28;;;21.70;99.90;;;;;;5034026;28;20108;-82
2023/06/15 08:35:26;;;;;;;0.47;0.47;;;21.80;99.90;;;;;;5035024;28;20021;-82
2023/06/15 08:37:51;;;;;;;0.45;0.30;;;21.80;99.90;;;;;;5034983;28;20556;-82
2023/06/15 08:40:19;;;;;;;0.85;0.50;;;21.70;99.90;;;;;;5034680;28;20517;-81
2023/06/15 08:42:45;;;;;;;0.20;0.20;;;21.80;99.90;;;;;;5034460;28;20025;-82
2023/06/15 08:45:11;;;;;;;0.40;0.30;;;22.00;99.90;;;;;;5034688;28;20033;-82
2023/06/15 08:47:37;;;;;;;0.68;0.68;;;22.10;99.90;;;;;;5034976;28;20516;-83
2023/06/15 08:50:05;;;;;;;0.77;0.68;;;22.20;99.90;;;;;;5034868;28;20025;-82
2023/06/15 08:52:33;;;;;;;0.28;0.28;;;22.10;99.90;;;;;;5034825;28;20064;-83
2023/06/15 08:55:01;;;;;;;0.60;0.43;;;22.20;99.90;;;;;;5034258;28;20498;-82
2023/06/15 08:57:27;;;;;;;0.75;0.75;;;22.20;99.90;;;;;;5034447;28;20033;-82
2023/06/15 08:59:53;;;;;;;0.30;0.30;;;22.20;99.90;;;;;;5034387;28;20481;-82
2023/06/15 09:02:23;;;;;;;0.30;0.30;;;22.40;99.90;;;;;;5034508;28;20061;-82
2023/06/15 09:04:50;;;;;;;0.20;0.20;;;22.40;99.90;;;;;;5034324;28;20105;-83
2023/06/15 09:07:18;;;;;;;0.90;0.40;;;22.50;99.90;;;;;;5034703;28;20489;-82
2023/06/15 09:10:12;;;;;;;0.45;0.45;;;22.60;99.90;;;;;;5034026;28;20032;-82
2023/06/15 09:12:47;;;;;;;0.10;0.10;;;22.70;99.90;;;;;;5034433;28;20040;-82
2023/06/15 09:15:27;;;;;;;0.50;0.50;;;22.70;99.90;;;;;;5034357;28;20053;-82
2023/06/15 09:17:54;;;;;;;0.77;0.77;;;22.90;99.90;;;;;;5034172;28;20473;-82
2023/06/15 09:20:21;;;;;;;0.52;0.52;;;23.00;99.90;;;;;;5034187;28;20038;-83
2023/06/15 09:22:47;;;;;;;0.28;0.28;;;23.30;99.90;;;;;;5034083;28;20029;-82
2023/06/15 09:25:20;;;;;;;0.40;0.40;;;23.30;99.90;;;;;;5034122;28;20032;-82
2023/06/15 09:27:57;;;;;;;0.30;0.30;;;23.50;99.90;;;;;;5034092;28;20029;-82
2023/06/15 09:30:39;;;;;;;0.35;0.28;;;23.70;99.90;;;;;;5034477;28;20021;-82
2023/06/15 09:33:18;;;;;;;0.63;0.30;;;23.70;99.90;;;;;;5034085;28;20128;-82
2023/06/15 09:36:03;;;;;;;0.80;0.63;;;23.70;99.90;;;;;;5033761;28;20021;-82
2023/06/15 09:38:40;;;;;;;0.38;0.38;;;23.90;99.90;;;;;;5033412;28;20075;-82
2023/06/15 09:41:07;;;;;;;1.58;0.50;;;23.90;99.90;;;;;;5033481;28;20057;-82
2023/06/15 09:43:40;;;;;;;1.25;0.95;;;24.10;99.90;;;;;;5032433;28;20025;-82
2023/06/15 09:46:13;;;;;;;0.28;0.25;;;24.20;99.90;;;;;;5034053;28;20504;-82
2023/06/15 09:48:47;;;;;;;0.20;0.20;;;24.10;99.90;;;;;;5033582;28;20025;-82
2023/06/15 09:51:13;;;;;;;0.52;0.52;;;24.30;99.90;;;;;;5034172;28;20064;-82
2023/06/15 09:53:42;;;;;;;1.45;0.55;;;24.20;99.90;;;;;;5033290;28;20175;-82
2023/06/15 09:56:09;;;;;;;0.28;0.28;;;24.20;99.90;;;;;;5033267;28;20116;-82
2023/06/15 09:58:34;;;;;;;0.50;0.40;;;24.10;99.90;;;;;;5033979;28;20032;-82
2023/06/15 10:01:04;;;;;;;0.50;0.50;;;24.50;99.90;;;;;;5033552;28;20022;-83
2023/06/15 10:03:31;;;;;;;0.73;0.50;;;24.60;99.90;;;;;;5033311;28;20022;-83
2023/06/15 10:06:15;;;;;;;0.60;0.47;;;24.50;99.90;;;;;;5033217;28;20025;-83
2023/06/15 10:08:43;;;;;;;0.45;0.40;;;24.50;99.90;;;;;;5032734;28;20077;-83
2023/06/15 10:11:12;;;;;;;0.40;0.40;;;24.70;99.90;;;;;;5033256;28;20041;-82
2023/06/15 10:13:54;;;;;;;0.98;0.90;;;24.80;99.90;;;;;;5033161;28;20485;-83
2023/06/15 10:16:21;;;;;;;0.35;0.35;;;24.80;99.90;;;;;;5033513;28;20025;-83
2023/06/15 10:18:53;;;;;;;0.55;0.55;;;24.80;99.90;;;;;;5032987;28;20041;-83
2023/06/15 10:21:25;;;;;;;0.50;0.50;;;24.70;99.90;;;;;;5032911;28;20033;-83
2023/06/15 10:23:54;;;;;;;0.30;0.30;;;24.90;99.90;;;;;;5032950;28;20068;-83
2023/06/15 10:26:21;;;;;;;0.40;0.40;;;25.00;99.90;;;;;;5033110;28;20022;-83
2023/06/15 10:28:51;;;;;;;0.28;0.28;;;25.30;99.90;;;;;;5032837;28;20033;-83
2023/06/15 10:31:35;;;;;;;0.55;0.55;;;25.50;99.90;;;;;;5032348;28;20035;-83
2023/06/15 10:34:10;;;;;;;1.17;0.68;;;25.50;99.90;;;;;;5032786;28;20109;-83
2023/06/15 10:36:57;;;;;;;0.88;0.77;;;25.60;99.90;;;;;;5032243;28;20096;-83
2023/06/15 10:39:32;;;;;;;0.30;0.30;;;25.70;99.90;;;;;;5033019;28;20030;-83
2023/06/15 10:41:58;;;;;;;0.55;0.55;;;25.90;99.90;;;;;;5032189;28;20060;-83
2023/06/15 10:44:31;;;;;;;0.80;0.32;;;26.10;99.90;;;;;;5032581;28;20106;-83
2023/06/15 10:47:08;;;;;;;0.60;0.47;;;26.30;99.90;;;;;;5032528;28;20049;-83
2023/06/15 10:49:35;;;;;;;0.77;0.25;;;26.30;99.90;;;;;;5032914;28;20030;-83
2023/06/15 10:52:04;;;;;;;0.30;0.30;;;26.50;99.90;;;;;;5032010;28;20111;-83
2023/06/15 10:54:30;;;;;;;0.60;0.60;;;26.50;99.90;;;;;;5032445;28;20140;-83
2023/06/15 10:56:57;;;;;;;0.20;0.20;;;26.60;99.90;;;;;;5032296;28;20438;-83
2023/06/15 10:59:51;;;;;;;0.35;0.35;;;26.70;99.90;;;;;;5032353;28;20025;-83
2023/06/15 11:02:47;;;;;;;0.47;0.45;;;26.70;99.90;;;;;;5032233;28;20509;-82
2023/06/15 11:05:14;;;;;;;5.22;2.10;;;26.90;99.90;;;;;;5032293;28;20093;-84
2023/06/15 11:07:46;;;;;;;0.77;0.77;;;26.80;99.90;;;;;;5032134;28;20037;-83
2023/06/15 11:10:21;;;;;;;0.28;0.28;;;26.80;99.90;;;;;;5033161;28;20483;-83
2023/06/15 11:12:58;;;;;;;0.50;0.50;;;26.90;99.90;;;;;;5032042;28;20493;-83
2023/06/15 11:15:31;;;;;;;1.08;0.57;;;27.10;99.90;;;;;;5031939;28;20489;-83
2023/06/15 11:18:12;;;;;;;0.35;0.35;;;27.10;99.90;;;;;;5032099;28;20033;-83
2023/06/15 11:20:38;;;;;;;0.50;0.50;;;27.00;99.90;;;;;;5031974;28;20037;-83
2023/06/15 11:23:11;;;;;;;0.50;0.40;;;27.10;99.90;;;;;;5032197;28;20017;-83
2023/06/15 11:25:50;;;;;;;0.45;0.45;;;27.30;99.90;;;;;;5032333;28;20040;-83
2023/06/15 11:28:21;;;;;;;1.00;0.80;;;27.30;99.90;;;;;;5032347;28;20420;-83
2023/06/15 11:30:47;;;;;;;0.80;0.30;;;27.50;99.90;;;;;;5031636;28;20120;-83
2023/06/15 11:33:13;;;;;;;0.82;0.73;;;27.60;99.90;;;;;;5031950;28;20076;-83
2023/06/15 11:35:39;;;;;;;0.68;0.20;;;27.30;99.90;;;;;;5031705;28;20029;-83
2023/06/15 11:38:07;;;;;;;0.28;0.28;;;27.40;99.90;;;;;;5031905;28;20033;-83
2023/06/15 11:40:33;;;;;;;2.28;0.85;;;27.30;99.90;;;;;;5032108;28;20103;-83
2023/06/15 11:42:59;;;;;;;0.80;0.68;;;27.20;99.90;;;;;;5031735;28;20031;-82
2023/06/15 11:45:25;;;;;;;0.30;0.30;;;27.40;99.90;;;;;;5031803;28;20034;-83
2023/06/15 11:47:52;;;;;;;0.28;0.20;;;27.40;99.90;;;;;;5031782;28;20397;-83
2023/06/15 11:50:20;;;;;;;0.60;0.38;;;27.70;99.90;;;;;;5031417;28;20030;-83
2023/06/15 11:52:46;;;;;;;0.22;0.22;;;27.60;99.90;;;;;;5031601;28;20505;-83
2023/06/15 11:55:15;;;;;;;0.63;0.63;;;27.50;99.90;;;;;;5013999;28;20036;-83
2023/06/15 11:57:44;;;;;;;0.35;0.35;;;27.60;99.90;;;;;;5031941;28;20018;-83
2023/06/15 12:00:10;;;;;;;0.35;0.35;;;27.70;99.90;;;;;;5031745;28;20028;-83
2023/06/15 12:02:37;;;;;;;0.43;0.35;;;27.90;99.90;;;;;;5031968;28;20022;-83
2023/06/15 12:05:03;;;;;;;0.30;0.30;;;27.90;99.90;;;;;;5031425;28;20112;-82
2023/06/15 12:07:34;;;;;;;0.77;0.77;;;28.10;99.90;;;;;;5033911;28;20041;-83
2023/06/15 12:10:00;;;;;;;0.20;0.20;;;28.00;99.90;;;;;;5035449;28;20018;-82
2023/06/15 12:12:31;;;;;;;0.65;0.63;;;28.00;99.90;;;;;;5035291;28;20034;-83
2023/06/15 12:14:59;;;;;;;0.30;0.30;;;28.30;99.90;;;;;;5035424;28;20096;-83
2023/06/15 12:17:33;;;;;;;0.55;0.22;;;28.20;99.90;;;;;;5035369;28;20037;-83
2023/06/15 12:20:00;;;;;;;0.40;0.40;;;28.30;99.90;;;;;;5034760;28;20029;-82
2023/06/15 12:22:47;;;;;;;0.40;0.40;;;28.30;99.90;;;;;;5035692;28;20473;-83
2023/06/15 12:25:14;;;;;;;0.22;0.22;;;28.50;99.90;;;;;;5035551;28;20032;-83
2023/06/15 12:27:47;;;;;;;0.45;0.45;;;28.60;99.90;;;;;;5035392;28;20551;-83
2023/06/15 12:30:15;;;;;;;0.38;0.38;;;28.80;99.90;;;;;;5034859;28;20037;-83
2023/06/15 12:32:45;;;;;;;0.22;0.22;;;28.60;99.90;;;;;;5034568;28;20036;-83
2023/06/15 12:35:25;;;;;;;0.13;0.13;;;28.90;99.90;;;;;;5034880;28;20101;-83
2023/06/15 12:37:50;;;;;;;0.32;0.22;;;29.00;99.90;;;;;;5035302;28;20025;-82
2023/06/15 12:40:22;;;;;;;0.40;0.40;;;29.00;99.90;;;;;;5016948;28;20079;-82
2023/06/15 12:43:01;;;;;;;0.30;0.30;;;28.80;99.90;;;;;;5034685;28;20029;-83
2023/06/15 12:45:27;;;;;;;0.25;0.25;;;28.80;99.90;;;;;;5035316;28;20029;-83
2023/06/15 12:47:53;;;;;;;0.30;0.30;;;28.90;99.90;;;;;;5034862;28;20129;-83